Terminal Aerodrome Forecast
Issued by NWS

Home | Current Version | Previous Version | Text Only | Print | Product List | Glossary On
Versions: 1 2 3 4 5 6 7 8 9 10 11 12 13 14 15
098
FTUS44 KMAF 131120
TAFHOB
TAF
KHOB 131120Z 1312/1412 12007KT P6SM SKC
     FM131800 17010G20KT P6SM FEW250
     FM140100 21007KT P6SM FEW200=

USA.gov is the U.S. government's official web portal to all federal, state and local government web resources and services.